sensor_id;sensor_type;location;lat;lon;timestamp;P1;durP1;ratioP1;P2;durP2;ratioP2
76380;SDS011;65202;52.520;10.528;2023-08-12T00:01:11;10.68;;;3.90;;
76380;SDS011;65202;52.520;10.528;2023-08-12T00:03:39;10.63;;;4.18;;
76380;SDS011;65202;52.520;10.528;2023-08-12T00:06:06;10.52;;;3.95;;
76380;SDS011;65202;52.520;10.528;2023-08-12T00:08:33;10.13;;;3.97;;
76380;SDS011;65202;52.520;10.528;2023-08-12T00:11:01;12.50;;;3.58;;
76380;SDS011;65202;52.520;10.528;2023-08-12T00:13:28;16.65;;;4.10;;
76380;SDS011;65202;52.520;10.528;2023-08-12T00:15:55;12.40;;;3.80;;
76380;SDS011;65202;52.520;10.528;2023-08-12T00:18:23;16.92;;;4.10;;
76380;SDS011;65202;52.520;10.528;2023-08-12T00:20:50;9.88;;;3.85;;
76380;SDS011;65202;52.520;10.528;2023-08-12T00:23:18;11.57;;;3.50;;
76380;SDS011;65202;52.520;10.528;2023-08-12T00:25:45;17.20;;;4.05;;
76380;SDS011;65202;52.520;10.528;2023-08-12T00:28:12;8.75;;;3.70;;
76380;SDS011;65202;52.520;10.528;2023-08-12T00:30:40;12.77;;;4.00;;
76380;SDS011;65202;52.520;10.528;2023-08-12T00:33:07;12.75;;;4.03;;
76380;SDS011;65202;52.520;10.528;2023-08-12T00:35:35;16.45;;;4.22;;
76380;SDS011;65202;52.520;10.528;2023-08-12T00:38:02;15.98;;;4.18;;
76380;SDS011;65202;52.520;10.528;2023-08-12T00:40:29;14.75;;;4.15;;
76380;SDS011;65202;52.520;10.528;2023-08-12T00:42:57;15.48;;;4.30;;
76380;SDS011;65202;52.520;10.528;2023-08-12T00:45:24;13.95;;;4.15;;
76380;SDS011;65202;52.520;10.528;2023-08-12T00:47:51;10.20;;;4.10;;
76380;SDS011;65202;52.520;10.528;2023-08-12T00:50:19;15.13;;;4.32;;
76380;SDS011;65202;52.520;10.528;2023-08-12T00:52:47;10.25;;;4.50;;
76380;SDS011;65202;52.520;10.528;2023-08-12T00:55:16;11.43;;;3.80;;
76380;SDS011;65202;52.520;10.528;2023-08-12T00:57:44;14.27;;;4.07;;
76380;SDS011;65202;52.520;10.528;2023-08-12T01:00:12;12.90;;;4.55;;
76380;SDS011;65202;52.520;10.528;2023-08-12T01:02:42;15.23;;;4.68;;
76380;SDS011;65202;52.520;10.528;2023-08-12T01:05:15;10.00;;;4.47;;
76380;SDS011;65202;52.520;10.528;2023-08-12T01:07:43;13.50;;;4.50;;
76380;SDS011;65202;52.520;10.528;2023-08-12T01:10:12;14.93;;;4.20;;
76380;SDS011;65202;52.520;10.528;2023-08-12T01:12:48;7.85;;;4.38;;
76380;SDS011;65202;52.520;10.528;2023-08-12T01:15:42;13.45;;;4.22;;
76380;SDS011;65202;52.520;10.528;2023-08-12T01:18:11;15.65;;;4.70;;
76380;SDS011;65202;52.520;10.528;2023-08-12T01:20:41;15.85;;;4.35;;
76380;SDS011;65202;52.520;10.528;2023-08-12T01:23:15;15.15;;;4.50;;
76380;SDS011;65202;52.520;10.528;2023-08-12T01:25:43;13.95;;;4.57;;
76380;SDS011;65202;52.520;10.528;2023-08-12T01:28:11;14.63;;;4.53;;
76380;SDS011;65202;52.520;10.528;2023-08-12T01:33:34;12.40;;;4.78;;
76380;SDS011;65202;52.520;10.528;2023-08-12T01:36:17;20.30;;;5.13;;
76380;SDS011;65202;52.520;10.528;2023-08-12T01:38:50;9.95;;;4.75;;
76380;SDS011;65202;52.520;10.528;2023-08-12T01:41:19;11.10;;;4.80;;
76380;SDS011;65202;52.520;10.528;2023-08-12T01:43:49;8.82;;;4.88;;
76380;SDS011;65202;52.520;10.528;2023-08-12T01:46:17;9.25;;;4.55;;
76380;SDS011;65202;52.520;10.528;2023-08-12T01:48:44;16.90;;;4.80;;
76380;SDS011;65202;52.520;10.528;2023-08-12T01:51:12;12.98;;;4.70;;
76380;SDS011;65202;52.520;10.528;2023-08-12T01:53:39;16.17;;;4.40;;
76380;SDS011;65202;52.520;10.528;2023-08-12T01:56:06;14.30;;;4.72;;
76380;SDS011;65202;52.520;10.528;2023-08-12T01:58:33;13.95;;;4.80;;
76380;SDS011;65202;52.520;10.528;2023-08-12T02:01:01;11.02;;;4.10;;
76380;SDS011;65202;52.520;10.528;2023-08-12T02:03:28;13.10;;;4.80;;
76380;SDS011;65202;52.520;10.528;2023-08-12T02:05:55;11.18;;;4.60;;
76380;SDS011;65202;52.520;10.528;2023-08-12T02:08:22;15.02;;;4.32;;
76380;SDS011;65202;52.520;10.528;2023-08-12T02:10:50;14.15;;;4.88;;
76380;SDS011;65202;52.520;10.528;2023-08-12T02:13:17;12.60;;;3.85;;
76380;SDS011;65202;52.520;10.528;2023-08-12T02:15:45;17.17;;;4.43;;
76380;SDS011;65202;52.520;10.528;2023-08-12T02:18:12;12.20;;;4.40;;
76380;SDS011;65202;52.520;10.528;2023-08-12T02:20:42;13.77;;;4.47;;
76380;SDS011;65202;52.520;10.528;2023-08-12T02:23:09;12.75;;;5.15;;
76380;SDS011;65202;52.520;10.528;2023-08-12T02:25:36;13.07;;;4.40;;
76380;SDS011;65202;52.520;10.528;2023-08-12T02:28:04;11.98;;;4.80;;
76380;SDS011;65202;52.520;10.528;2023-08-12T02:30:31;8.82;;;4.38;;
76380;SDS011;65202;52.520;10.528;2023-08-12T02:32:58;10.98;;;4.72;;
76380;SDS011;65202;52.520;10.528;2023-08-12T02:35:26;14.38;;;4.50;;
76380;SDS011;65202;52.520;10.528;2023-08-12T02:37:53;13.18;;;4.75;;
76380;SDS011;65202;52.520;10.528;2023-08-12T02:40:20;15.63;;;4.88;;
76380;SDS011;65202;52.520;10.528;2023-08-12T02:42:48;8.55;;;4.00;;
76380;SDS011;65202;52.520;10.528;2023-08-12T02:45:15;13.02;;;4.43;;
76380;SDS011;65202;52.520;10.528;2023-08-12T02:47:42;12.23;;;4.18;;
76380;SDS011;65202;52.520;10.528;2023-08-12T02:50:09;7.88;;;4.00;;
76380;SDS011;65202;52.520;10.528;2023-08-12T02:52:37;13.50;;;4.50;;
76380;SDS011;65202;52.520;10.528;2023-08-12T02:55:04;10.88;;;4.40;;
76380;SDS011;65202;52.520;10.528;2023-08-12T02:57:31;10.30;;;4.43;;
76380;SDS011;65202;52.520;10.528;2023-08-12T02:59:59;11.45;;;4.38;;
76380;SDS011;65202;52.520;10.528;2023-08-12T03:02:26;10.65;;;4.22;;
76380;SDS011;65202;52.520;10.528;2023-08-12T03:04:53;13.05;;;4.45;;
76380;SDS011;65202;52.520;10.528;2023-08-12T03:07:21;13.25;;;4.80;;
76380;SDS011;65202;52.520;10.528;2023-08-12T03:09:48;14.10;;;4.22;;
76380;SDS011;65202;52.520;10.528;2023-08-12T03:12:15;18.23;;;4.60;;
76380;SDS011;65202;52.520;10.528;2023-08-12T03:14:42;15.60;;;4.60;;
76380;SDS011;65202;52.520;10.528;2023-08-12T03:17:10;13.35;;;4.10;;
76380;SDS011;65202;52.520;10.528;2023-08-12T03:19:37;10.18;;;4.32;;
76380;SDS011;65202;52.520;10.528;2023-08-12T03:22:05;15.60;;;4.82;;
76380;SDS011;65202;52.520;10.528;2023-08-12T03:24:32;9.45;;;4.30;;
76380;SDS011;65202;52.520;10.528;2023-08-12T03:26:59;14.27;;;5.00;;
76380;SDS011;65202;52.520;10.528;2023-08-12T03:29:27;10.00;;;4.82;;
76380;SDS011;65202;52.520;10.528;2023-08-12T03:31:54;8.55;;;4.30;;
76380;SDS011;65202;52.520;10.528;2023-08-12T03:34:21;14.25;;;4.20;;
76380;SDS011;65202;52.520;10.528;2023-08-12T03:36:48;15.95;;;4.70;;
76380;SDS011;65202;52.520;10.528;2023-08-12T03:39:17;13.63;;;4.47;;
76380;SDS011;65202;52.520;10.528;2023-08-12T03:41:44;10.70;;;4.40;;
76380;SDS011;65202;52.520;10.528;2023-08-12T03:44:12;11.63;;;4.65;;
76380;SDS011;65202;52.520;10.528;2023-08-12T03:46:39;11.75;;;4.43;;
76380;SDS011;65202;52.520;10.528;2023-08-12T03:49:06;10.65;;;4.40;;
76380;SDS011;65202;52.520;10.528;2023-08-12T03:51:34;12.32;;;4.18;;
76380;SDS011;65202;52.520;10.528;2023-08-12T03:54:01;12.80;;;4.53;;
76380;SDS011;65202;52.520;10.528;2023-08-12T03:56:28;8.30;;;4.15;;
76380;SDS011;65202;52.520;10.528;2023-08-12T03:58:55;11.68;;;4.25;;
76380;SDS011;65202;52.520;10.528;2023-08-12T04:01:23;9.32;;;4.15;;
76380;SDS011;65202;52.520;10.528;2023-08-12T04:03:50;12.75;;;4.22;;
76380;SDS011;65202;52.520;10.528;2023-08-12T04:06:18;26.50;;;7.88;;
76380;SDS011;65202;52.520;10.528;2023-08-12T04:08:45;15.50;;;5.45;;
76380;SDS011;65202;52.520;10.528;2023-08-12T04:11:12;10.35;;;5.22;;
76380;SDS011;65202;52.520;10.528;2023-08-12T04:13:39;14.32;;;6.15;;
76380;SDS011;65202;52.520;10.528;2023-08-12T04:16:07;11.18;;;4.65;;
76380;SDS011;65202;52.520;10.528;2023-08-12T04:18:34;11.70;;;4.47;;
76380;SDS011;65202;52.520;10.528;2023-08-12T04:21:01;8.65;;;4.82;;
76380;SDS011;65202;52.520;10.528;2023-08-12T04:23:29;12.98;;;4.38;;
76380;SDS011;65202;52.520;10.528;2023-08-12T04:25:56;13.43;;;4.95;;
76380;SDS011;65202;52.520;10.528;2023-08-12T04:28:23;9.23;;;4.53;;
76380;SDS011;65202;52.520;10.528;2023-08-12T04:30:51;14.60;;;4.68;;
76380;SDS011;65202;52.520;10.528;2023-08-12T04:33:19;12.13;;;4.72;;
76380;SDS011;65202;52.520;10.528;2023-08-12T04:35:46;12.68;;;5.03;;
76380;SDS011;65202;52.520;10.528;2023-08-12T04:38:14;10.15;;;4.70;;
76380;SDS011;65202;52.520;10.528;2023-08-12T04:40:42;12.95;;;4.70;;
76380;SDS011;65202;52.520;10.528;2023-08-12T04:43:09;9.05;;;4.22;;
76380;SDS011;65202;52.520;10.528;2023-08-12T04:45:37;13.05;;;4.25;;
76380;SDS011;65202;52.520;10.528;2023-08-12T04:48:05;18.92;;;4.45;;
76380;SDS011;65202;52.520;10.528;2023-08-12T04:50:35;10.75;;;4.57;;
76380;SDS011;65202;52.520;10.528;2023-08-12T04:53:02;12.80;;;4.75;;
76380;SDS011;65202;52.520;10.528;2023-08-12T04:55:30;11.80;;;4.40;;
76380;SDS011;65202;52.520;10.528;2023-08-12T04:57:57;11.88;;;4.20;;
76380;SDS011;65202;52.520;10.528;2023-08-12T05:00:24;17.95;;;5.00;;
76380;SDS011;65202;52.520;10.528;2023-08-12T05:02:55;10.20;;;4.50;;
76380;SDS011;65202;52.520;10.528;2023-08-12T05:05:23;11.43;;;4.80;;
76380;SDS011;65202;52.520;10.528;2023-08-12T05:07:50;14.77;;;4.95;;
76380;SDS011;65202;52.520;10.528;2023-08-12T05:10:18;12.70;;;4.68;;
76380;SDS011;65202;52.520;10.528;2023-08-12T05:12:45;11.65;;;4.07;;
76380;SDS011;65202;52.520;10.528;2023-08-12T05:15:14;10.90;;;4.68;;
76380;SDS011;65202;52.520;10.528;2023-08-12T05:17:41;14.15;;;4.72;;
76380;SDS011;65202;52.520;10.528;2023-08-12T05:20:08;12.38;;;4.82;;
76380;SDS011;65202;52.520;10.528;2023-08-12T05:22:36;14.63;;;4.45;;
76380;SDS011;65202;52.520;10.528;2023-08-12T05:25:03;10.20;;;4.22;;
76380;SDS011;65202;52.520;10.528;2023-08-12T05:27:31;18.40;;;5.30;;
76380;SDS011;65202;52.520;10.528;2023-08-12T05:29:59;9.25;;;4.75;;
76380;SDS011;65202;52.520;10.528;2023-08-12T05:32:26;9.98;;;4.80;;
76380;SDS011;65202;52.520;10.528;2023-08-12T05:34:54;12.55;;;5.25;;
76380;SDS011;65202;52.520;10.528;2023-08-12T05:37:22;10.32;;;5.13;;
76380;SDS011;65202;52.520;10.528;2023-08-12T05:39:49;14.10;;;5.03;;
76380;SDS011;65202;52.520;10.528;2023-08-12T05:42:16;11.55;;;5.35;;
76380;SDS011;65202;52.520;10.528;2023-08-12T05:44:44;11.85;;;5.25;;
76380;SDS011;65202;52.520;10.528;2023-08-12T05:47:11;13.23;;;5.20;;
76380;SDS011;65202;52.520;10.528;2023-08-12T05:49:38;15.75;;;5.50;;
76380;SDS011;65202;52.520;10.528;2023-08-12T05:52:05;11.32;;;5.35;;
76380;SDS011;65202;52.520;10.528;2023-08-12T05:54:33;12.55;;;5.47;;
76380;SDS011;65202;52.520;10.528;2023-08-12T05:57:00;10.98;;;5.55;;
76380;SDS011;65202;52.520;10.528;2023-08-12T05:59:27;12.15;;;4.97;;
76380;SDS011;65202;52.520;10.528;2023-08-12T06:01:54;13.02;;;5.15;;
76380;SDS011;65202;52.520;10.528;2023-08-12T06:04:21;12.48;;;6.00;;
76380;SDS011;65202;52.520;10.528;2023-08-12T06:06:49;14.30;;;5.53;;
76380;SDS011;65202;52.520;10.528;2023-08-12T06:09:16;15.57;;;6.35;;
76380;SDS011;65202;52.520;10.528;2023-08-12T06:11:43;11.75;;;5.63;;
76380;SDS011;65202;52.520;10.528;2023-08-12T06:14:10;11.80;;;5.35;;
76380;SDS011;65202;52.520;10.528;2023-08-12T06:16:38;11.27;;;5.65;;
76380;SDS011;65202;52.520;10.528;2023-08-12T06:19:05;11.07;;;5.55;;
76380;SDS011;65202;52.520;10.528;2023-08-12T06:21:32;15.00;;;6.30;;
76380;SDS011;65202;52.520;10.528;2023-08-12T06:23:59;19.75;;;5.65;;
76380;SDS011;65202;52.520;10.528;2023-08-12T06:26:26;13.45;;;5.60;;
76380;SDS011;65202;52.520;10.528;2023-08-12T06:28:54;9.80;;;5.70;;
76380;SDS011;65202;52.520;10.528;2023-08-12T06:31:21;13.98;;;6.00;;
76380;SDS011;65202;52.520;10.528;2023-08-12T06:33:48;14.32;;;5.75;;
76380;SDS011;65202;52.520;10.528;2023-08-12T06:36:15;11.32;;;6.70;;
76380;SDS011;65202;52.520;10.528;2023-08-12T06:38:43;18.08;;;6.70;;
76380;SDS011;65202;52.520;10.528;2023-08-12T06:41:10;11.95;;;6.70;;
76380;SDS011;65202;52.520;10.528;2023-08-12T06:43:37;13.40;;;6.68;;
76380;SDS011;65202;52.520;10.528;2023-08-12T06:46:04;13.27;;;6.25;;
76380;SDS011;65202;52.520;10.528;2023-08-12T06:48:32;11.88;;;6.72;;
76380;SDS011;65202;52.520;10.528;2023-08-12T06:50:59;12.73;;;6.40;;
76380;SDS011;65202;52.520;10.528;2023-08-12T06:53:26;12.73;;;7.18;;
76380;SDS011;65202;52.520;10.528;2023-08-12T06:55:53;13.13;;;6.07;;
76380;SDS011;65202;52.520;10.528;2023-08-12T06:58:21;12.65;;;6.35;;
76380;SDS011;65202;52.520;10.528;2023-08-12T07:00:48;11.18;;;6.13;;
76380;SDS011;65202;52.520;10.528;2023-08-12T07:03:16;14.07;;;6.60;;
76380;SDS011;65202;52.520;10.528;2023-08-12T07:05:43;13.00;;;7.00;;
76380;SDS011;65202;52.520;10.528;2023-08-12T07:08:10;13.70;;;6.32;;
76380;SDS011;65202;52.520;10.528;2023-08-12T07:10:38;11.60;;;7.13;;
76380;SDS011;65202;52.520;10.528;2023-08-12T07:13:08;19.67;;;7.63;;
76380;SDS011;65202;52.520;10.528;2023-08-12T07:15:36;12.77;;;7.60;;
76380;SDS011;65202;52.520;10.528;2023-08-12T07:18:03;14.48;;;7.57;;
76380;SDS011;65202;52.520;10.528;2023-08-12T07:20:31;15.20;;;8.13;;
76380;SDS011;65202;52.520;10.528;2023-08-12T07:22:58;15.63;;;7.88;;
76380;SDS011;65202;52.520;10.528;2023-08-12T07:25:25;13.95;;;8.02;;
76380;SDS011;65202;52.520;10.528;2023-08-12T07:27:52;16.08;;;7.82;;
76380;SDS011;65202;52.520;10.528;2023-08-12T07:30:20;13.15;;;7.25;;
76380;SDS011;65202;52.520;10.528;2023-08-12T07:32:47;12.57;;;6.88;;
76380;SDS011;65202;52.520;10.528;2023-08-12T07:35:14;13.93;;;7.45;;
76380;SDS011;65202;52.520;10.528;2023-08-12T07:37:41;14.82;;;8.57;;
76380;SDS011;65202;52.520;10.528;2023-08-12T07:40:09;13.18;;;7.07;;
76380;SDS011;65202;52.520;10.528;2023-08-12T07:42:37;11.52;;;7.78;;
76380;SDS011;65202;52.520;10.528;2023-08-12T07:45:04;14.90;;;8.68;;
76380;SDS011;65202;52.520;10.528;2023-08-12T07:47:32;12.07;;;8.60;;
76380;SDS011;65202;52.520;10.528;2023-08-12T07:50:00;16.35;;;11.02;;
76380;SDS011;65202;52.520;10.528;2023-08-12T07:52:27;15.82;;;9.18;;
76380;SDS011;65202;52.520;10.528;2023-08-12T07:54:54;16.00;;;8.60;;
76380;SDS011;65202;52.520;10.528;2023-08-12T07:57:21;15.27;;;8.43;;
76380;SDS011;65202;52.520;10.528;2023-08-12T07:59:51;17.42;;;8.68;;
76380;SDS011;65202;52.520;10.528;2023-08-12T08:02:18;17.88;;;8.50;;
76380;SDS011;65202;52.520;10.528;2023-08-12T08:04:45;15.20;;;8.90;;
76380;SDS011;65202;52.520;10.528;2023-08-12T08:07:16;13.88;;;9.05;;
76380;SDS011;65202;52.520;10.528;2023-08-12T08:09:44;16.98;;;9.40;;
76380;SDS011;65202;52.520;10.528;2023-08-12T08:12:11;14.75;;;9.23;;
76380;SDS011;65202;52.520;10.528;2023-08-12T08:14:39;17.88;;;10.00;;
76380;SDS011;65202;52.520;10.528;2023-08-12T08:17:06;17.30;;;9.63;;
76380;SDS011;65202;52.520;10.528;2023-08-12T08:19:34;22.92;;;10.23;;
76380;SDS011;65202;52.520;10.528;2023-08-12T08:22:01;17.10;;;9.27;;
76380;SDS011;65202;52.520;10.528;2023-08-12T08:24:28;16.30;;;9.73;;
76380;SDS011;65202;52.520;10.528;2023-08-12T08:26:56;15.52;;;9.40;;
76380;SDS011;65202;52.520;10.528;2023-08-12T08:29:23;21.20;;;10.90;;
76380;SDS011;65202;52.520;10.528;2023-08-12T08:31:51;17.98;;;10.70;;
76380;SDS011;65202;52.520;10.528;2023-08-12T08:34:19;20.73;;;11.30;;
76380;SDS011;65202;52.520;10.528;2023-08-12T08:36:46;18.20;;;10.80;;
76380;SDS011;65202;52.520;10.528;2023-08-12T08:39:13;15.25;;;9.68;;
76380;SDS011;65202;52.520;10.528;2023-08-12T08:41:40;13.88;;;8.82;;
76380;SDS011;65202;52.520;10.528;2023-08-12T08:44:10;11.80;;;9.07;;
76380;SDS011;65202;52.520;10.528;2023-08-12T08:46:40;14.25;;;9.02;;
76380;SDS011;65202;52.520;10.528;2023-08-12T08:49:10;16.15;;;10.30;;
76380;SDS011;65202;52.520;10.528;2023-08-12T08:51:41;14.13;;;9.35;;
76380;SDS011;65202;52.520;10.528;2023-08-12T08:54:09;17.90;;;9.30;;
76380;SDS011;65202;52.520;10.528;2023-08-12T08:56:39;20.45;;;9.73;;
76380;SDS011;65202;52.520;10.528;2023-08-12T08:59:13;20.08;;;11.40;;
76380;SDS011;65202;52.520;10.528;2023-08-12T09:01:41;17.05;;;11.25;;
76380;SDS011;65202;52.520;10.528;2023-08-12T09:04:11;20.27;;;11.25;;
76380;SDS011;65202;52.520;10.528;2023-08-12T09:06:39;18.60;;;12.25;;
76380;SDS011;65202;52.520;10.528;2023-08-12T09:09:08;17.85;;;11.40;;
76380;SDS011;65202;52.520;10.528;2023-08-12T09:11:41;18.05;;;10.60;;
76380;SDS011;65202;52.520;10.528;2023-08-12T09:14:08;14.23;;;9.93;;
76380;SDS011;65202;52.520;10.528;2023-08-12T09:16:36;17.45;;;9.10;;
76380;SDS011;65202;52.520;10.528;2023-08-12T09:19:03;14.48;;;7.75;;
76380;SDS011;65202;52.520;10.528;2023-08-12T09:21:30;14.52;;;7.70;;
76380;SDS011;65202;52.520;10.528;2023-08-12T09:23:57;10.07;;;6.97;;
76380;SDS011;65202;52.520;10.528;2023-08-12T09:26:31;7.90;;;5.95;;
76380;SDS011;65202;52.520;10.528;2023-08-12T09:28:58;11.43;;;6.93;;
76380;SDS011;65202;52.520;10.528;2023-08-12T09:31:28;8.82;;;6.43;;
76380;SDS011;65202;52.520;10.528;2023-08-12T09:34:04;8.80;;;5.97;;
76380;SDS011;65202;52.520;10.528;2023-08-12T09:36:35;11.68;;;6.43;;
76380;SDS011;65202;52.520;10.528;2023-08-12T09:39:06;11.23;;;5.97;;
76380;SDS011;65202;52.520;10.528;2023-08-12T09:41:37;10.00;;;5.88;;
76380;SDS011;65202;52.520;10.528;2023-08-12T09:44:06;7.57;;;5.32;;
76380;SDS011;65202;52.520;10.528;2023-08-12T09:46:33;9.93;;;5.82;;
76380;SDS011;65202;52.520;10.528;2023-08-12T09:49:00;11.48;;;6.32;;
76380;SDS011;65202;52.520;10.528;2023-08-12T09:51:33;11.20;;;6.03;;
76380;SDS011;65202;52.520;10.528;2023-08-12T09:54:02;12.32;;;5.70;;
76380;SDS011;65202;52.520;10.528;2023-08-12T09:56:33;10.18;;;5.82;;
76380;SDS011;65202;52.520;10.528;2023-08-12T09:59:05;11.32;;;6.30;;
76380;SDS011;65202;52.520;10.528;2023-08-12T10:04:05;14.80;;;6.38;;
76380;SDS011;65202;52.520;10.528;2023-08-12T10:06:41;11.48;;;6.40;;
76380;SDS011;65202;52.520;10.528;2023-08-12T10:09:10;13.10;;;6.35;;
76380;SDS011;65202;52.520;10.528;2023-08-12T10:11:38;9.95;;;5.88;;
76380;SDS011;65202;52.520;10.528;2023-08-12T10:14:06;9.88;;;6.18;;
76380;SDS011;65202;52.520;10.528;2023-08-12T10:16:36;9.63;;;6.00;;
76380;SDS011;65202;52.520;10.528;2023-08-12T10:19:06;9.27;;;5.65;;
76380;SDS011;65202;52.520;10.528;2023-08-12T10:21:33;10.63;;;6.60;;
76380;SDS011;65202;52.520;10.528;2023-08-12T10:24:01;12.30;;;6.47;;
76380;SDS011;65202;52.520;10.528;2023-08-12T10:26:30;9.48;;;6.18;;
76380;SDS011;65202;52.520;10.528;2023-08-12T10:28:59;13.75;;;10.90;;
76380;SDS011;65202;52.520;10.528;2023-08-12T10:31:27;11.90;;;6.22;;
76380;SDS011;65202;52.520;10.528;2023-08-12T10:33:57;9.15;;;6.05;;
76380;SDS011;65202;52.520;10.528;2023-08-12T10:36:25;10.18;;;5.60;;
76380;SDS011;65202;52.520;10.528;2023-08-12T10:38:55;10.88;;;5.95;;
76380;SDS011;65202;52.520;10.528;2023-08-12T10:41:24;8.15;;;5.65;;
76380;SDS011;65202;52.520;10.528;2023-08-12T10:43:53;8.15;;;5.20;;
76380;SDS011;65202;52.520;10.528;2023-08-12T10:46:35;10.65;;;5.22;;
76380;SDS011;65202;52.520;10.528;2023-08-12T10:49:10;7.13;;;5.88;;
76380;SDS011;65202;52.520;10.528;2023-08-12T10:51:51;13.07;;;5.75;;
76380;SDS011;65202;52.520;10.528;2023-08-12T11:02:18;8.38;;;4.80;;
76380;SDS011;65202;52.520;10.528;2023-08-12T11:05:00;11.23;;;6.28;;
76380;SDS011;65202;52.520;10.528;2023-08-12T11:07:43;8.20;;;5.65;;
76380;SDS011;65202;52.520;10.528;2023-08-12T11:10:30;8.65;;;5.68;;
76380;SDS011;65202;52.520;10.528;2023-08-12T11:13:01;12.55;;;5.32;;
76380;SDS011;65202;52.520;10.528;2023-08-12T11:18:09;13.63;;;6.03;;
76380;SDS011;65202;52.520;10.528;2023-08-12T11:20:43;8.90;;;6.70;;
76380;SDS011;65202;52.520;10.528;2023-08-12T11:23:12;12.68;;;6.50;;
76380;SDS011;65202;52.520;10.528;2023-08-12T11:25:40;16.48;;;6.82;;
76380;SDS011;65202;52.520;10.528;2023-08-12T11:28:10;13.15;;;6.90;;
76380;SDS011;65202;52.520;10.528;2023-08-12T11:30:40;17.60;;;7.20;;
76380;SDS011;65202;52.520;10.528;2023-08-12T11:33:09;10.75;;;6.43;;
76380;SDS011;65202;52.520;10.528;2023-08-12T11:35:37;10.43;;;5.32;;
76380;SDS011;65202;52.520;10.528;2023-08-12T11:38:05;10.85;;;5.50;;
76380;SDS011;65202;52.520;10.528;2023-08-12T11:40:34;6.63;;;5.35;;
76380;SDS011;65202;52.520;10.528;2023-08-12T11:43:02;13.73;;;4.82;;
76380;SDS011;65202;52.520;10.528;2023-08-12T11:45:33;17.15;;;5.28;;
76380;SDS011;65202;52.520;10.528;2023-08-12T11:48:00;10.50;;;4.80;;
76380;SDS011;65202;52.520;10.528;2023-08-12T11:50:27;8.30;;;5.60;;
76380;SDS011;65202;52.520;10.528;2023-08-12T11:52:55;8.68;;;5.38;;
76380;SDS011;65202;52.520;10.528;2023-08-12T11:55:23;6.82;;;5.28;;
76380;SDS011;65202;52.520;10.528;2023-08-12T11:57:51;7.18;;;5.18;;
76380;SDS011;65202;52.520;10.528;2023-08-12T12:00:19;9.25;;;5.20;;
76380;SDS011;65202;52.520;10.528;2023-08-12T12:02:48;6.43;;;4.95;;
76380;SDS011;65202;52.520;10.528;2023-08-12T12:05:18;6.75;;;4.93;;
76380;SDS011;65202;52.520;10.528;2023-08-12T12:07:53;9.70;;;5.65;;
76380;SDS011;65202;52.520;10.528;2023-08-12T12:10:25;7.28;;;5.93;;
76380;SDS011;65202;52.520;10.528;2023-08-12T12:13:00;6.40;;;4.82;;
76380;SDS011;65202;52.520;10.528;2023-08-12T12:15:31;5.55;;;4.25;;
76380;SDS011;65202;52.520;10.528;2023-08-12T12:18:08;7.13;;;4.15;;
76380;SDS011;65202;52.520;10.528;2023-08-12T12:20:42;7.00;;;4.40;;
76380;SDS011;65202;52.520;10.528;2023-08-12T12:23:27;5.85;;;4.70;;
76380;SDS011;65202;52.520;10.528;2023-08-12T12:26:01;5.38;;;4.20;;
76380;SDS011;65202;52.520;10.528;2023-08-12T12:28:30;6.90;;;4.35;;
76380;SDS011;65202;52.520;10.528;2023-08-12T12:30:58;11.38;;;4.50;;
76380;SDS011;65202;52.520;10.528;2023-08-12T12:33:25;9.90;;;4.30;;
76380;SDS011;65202;52.520;10.528;2023-08-12T12:35:52;6.55;;;4.53;;
76380;SDS011;65202;52.520;10.528;2023-08-12T12:38:25;11.57;;;5.00;;
76380;SDS011;65202;52.520;10.528;2023-08-12T12:40:53;7.78;;;5.47;;
76380;SDS011;65202;52.520;10.528;2023-08-12T12:43:20;11.00;;;4.88;;
76380;SDS011;65202;52.520;10.528;2023-08-12T12:45:48;8.23;;;4.40;;
76380;SDS011;65202;52.520;10.528;2023-08-12T12:48:15;6.65;;;4.38;;
76380;SDS011;65202;52.520;10.528;2023-08-12T12:50:42;8.18;;;4.65;;
76380;SDS011;65202;52.520;10.528;2023-08-12T12:53:09;8.95;;;4.20;;
76380;SDS011;65202;52.520;10.528;2023-08-12T12:55:37;6.63;;;4.80;;
76380;SDS011;65202;52.520;10.528;2023-08-12T12:58:04;7.97;;;4.82;;
76380;SDS011;65202;52.520;10.528;2023-08-12T13:00:31;6.85;;;4.15;;
76380;SDS011;65202;52.520;10.528;2023-08-12T13:02:58;10.13;;;5.20;;
76380;SDS011;65202;52.520;10.528;2023-08-12T13:05:26;13.65;;;7.63;;
76380;SDS011;65202;52.520;10.528;2023-08-12T13:07:53;9.68;;;6.63;;
76380;SDS011;65202;52.520;10.528;2023-08-12T13:10:20;5.65;;;4.75;;
76380;SDS011;65202;52.520;10.528;2023-08-12T13:12:48;9.20;;;6.90;;
76380;SDS011;65202;52.520;10.528;2023-08-12T13:15:15;7.38;;;6.40;;
76380;SDS011;65202;52.520;10.528;2023-08-12T13:17:42;9.85;;;5.88;;
76380;SDS011;65202;52.520;10.528;2023-08-12T13:20:10;6.78;;;3.88;;
76380;SDS011;65202;52.520;10.528;2023-08-12T13:22:38;5.40;;;3.80;;
76380;SDS011;65202;52.520;10.528;2023-08-12T13:25:05;4.65;;;3.72;;
76380;SDS011;65202;52.520;10.528;2023-08-12T13:27:33;4.15;;;3.45;;
76380;SDS011;65202;52.520;10.528;2023-08-12T13:30:00;6.85;;;3.80;;
76380;SDS011;65202;52.520;10.528;2023-08-12T13:32:28;5.53;;;3.88;;
76380;SDS011;65202;52.520;10.528;2023-08-12T13:34:55;5.55;;;4.43;;
76380;SDS011;65202;52.520;10.528;2023-08-12T13:37:22;8.95;;;5.25;;
76380;SDS011;65202;52.520;10.528;2023-08-12T13:39:49;8.40;;;5.95;;
76380;SDS011;65202;52.520;10.528;2023-08-12T13:42:16;8.75;;;6.28;;
76380;SDS011;65202;52.520;10.528;2023-08-12T13:44:44;25.25;;;17.25;;
76380;SDS011;65202;52.520;10.528;2023-08-12T13:47:11;11.60;;;6.43;;
76380;SDS011;65202;52.520;10.528;2023-08-12T13:49:38;8.80;;;5.50;;
76380;SDS011;65202;52.520;10.528;2023-08-12T13:52:05;8.93;;;6.03;;
76380;SDS011;65202;52.520;10.528;2023-08-12T13:54:33;5.22;;;3.70;;
76380;SDS011;65202;52.520;10.528;2023-08-12T13:57:01;7.28;;;3.85;;
76380;SDS011;65202;52.520;10.528;2023-08-12T13:59:30;9.68;;;4.00;;
76380;SDS011;65202;52.520;10.528;2023-08-12T14:01:58;12.20;;;4.28;;
76380;SDS011;65202;52.520;10.528;2023-08-12T14:04:25;10.30;;;5.88;;
76380;SDS011;65202;52.520;10.528;2023-08-12T14:06:52;5.00;;;3.70;;
76380;SDS011;65202;52.520;10.528;2023-08-12T14:09:20;6.88;;;3.72;;
76380;SDS011;65202;52.520;10.528;2023-08-12T14:11:47;7.30;;;3.90;;
76380;SDS011;65202;52.520;10.528;2023-08-12T14:14:14;7.13;;;3.60;;
76380;SDS011;65202;52.520;10.528;2023-08-12T14:16:41;8.00;;;3.55;;
76380;SDS011;65202;52.520;10.528;2023-08-12T14:19:09;4.25;;;3.35;;
76380;SDS011;65202;52.520;10.528;2023-08-12T14:21:36;6.85;;;3.25;;
76380;SDS011;65202;52.520;10.528;2023-08-12T14:24:03;6.38;;;3.30;;
76380;SDS011;65202;52.520;10.528;2023-08-12T14:26:31;6.85;;;3.60;;
76380;SDS011;65202;52.520;10.528;2023-08-12T14:28:58;8.43;;;3.13;;
76380;SDS011;65202;52.520;10.528;2023-08-12T14:31:25;3.53;;;3.22;;
76380;SDS011;65202;52.520;10.528;2023-08-12T14:33:53;4.68;;;2.95;;
76380;SDS011;65202;52.520;10.528;2023-08-12T14:36:20;3.63;;;3.08;;
76380;SDS011;65202;52.520;10.528;2023-08-12T14:38:47;4.65;;;2.50;;
76380;SDS011;65202;52.520;10.528;2023-08-12T14:41:14;6.07;;;2.30;;
76380;SDS011;65202;52.520;10.528;2023-08-12T14:43:41;2.25;;;2.05;;
76380;SDS011;65202;52.520;10.528;2023-08-12T14:46:09;4.38;;;2.10;;